createdAt,value
2023-04-29T00:01:11.914Z,21.67
2023-04-29T00:03:58.611Z,27.75
2023-04-29T00:06:44.914Z,25.20
2023-04-29T00:09:31.052Z,22.98
2023-04-29T00:12:17.848Z,27.50
2023-04-29T00:15:04.776Z,26.75
2023-04-29T00:17:51.951Z,26.92
2023-04-29T00:20:39.258Z,23.88
2023-04-29T00:23:25.105Z,29.83
2023-04-29T00:26:11.826Z,26.73
2023-04-29T00:28:59.138Z,27.20
2023-04-29T00:31:46.198Z,26.05
2023-04-29T00:34:32.119Z,22.63
2023-04-29T00:37:18.864Z,27.23
2023-04-29T00:40:06.708Z,25.67
2023-04-29T00:42:52.881Z,29.10
2023-04-29T00:45:38.527Z,25.08
2023-04-29T00:48:24.548Z,25.40
2023-04-29T00:51:11.066Z,23.40
2023-04-29T00:53:57.744Z,24.02
2023-04-29T00:56:45.593Z,23.58
2023-04-29T00:59:32.508Z,28.70
2023-04-29T01:02:18.879Z,23.30
2023-04-29T01:05:05.337Z,23.63
2023-04-29T01:08:39.665Z,24.30
2023-04-29T01:11:33.723Z,26.58
2023-04-29T01:14:19.857Z,23.10
2023-04-29T01:17:10.972Z,24.92
2023-04-29T01:19:59.763Z,26.05
2023-04-29T01:22:47.491Z,26.63
2023-04-29T01:25:33.314Z,27.95
2023-04-29T01:28:54.700Z,29.52
2023-04-29T01:31:52.429Z,27.98
2023-04-29T01:34:51.644Z,26.73
2023-04-29T01:38:04.275Z,24.40
2023-04-29T01:40:59.437Z,27.25
2023-04-29T01:43:48.575Z,29.00
2023-04-29T01:46:41.169Z,28.38
2023-04-29T01:49:28.085Z,25.63
2023-04-29T01:52:14.817Z,24.27
2023-04-29T01:55:06.447Z,26.17
2023-04-29T01:58:02.595Z,25.85
2023-04-29T02:01:04.770Z,25.55
2023-04-29T02:03:52.713Z,25.92
2023-04-29T02:06:38.925Z,26.20
2023-04-29T02:09:25.545Z,23.88
2023-04-29T02:12:17.797Z,27.20
2023-04-29T02:15:04.426Z,27.05
2023-04-29T02:17:50.244Z,29.40
2023-04-29T02:20:39.699Z,23.35
2023-04-29T02:23:25.615Z,25.52
2023-04-29T02:26:12.114Z,26.27
2023-04-29T02:28:58.022Z,22.55
2023-04-29T02:31:44.119Z,24.60
2023-04-29T02:34:31.371Z,24.65
2023-04-29T02:37:19.216Z,24.02
2023-04-29T02:40:07.692Z,25.17
2023-04-29T02:42:53.721Z,30.23
2023-04-29T02:45:39.544Z,27.85
2023-04-29T02:48:25.891Z,25.42
2023-04-29T02:51:11.711Z,27.63
2023-04-29T02:53:57.684Z,26.38
2023-04-29T02:56:44.286Z,22.65
2023-04-29T02:59:30.200Z,27.33
2023-04-29T03:02:16.354Z,24.55
2023-04-29T03:05:05.795Z,28.27
2023-04-29T03:07:52.235Z,25.52
2023-04-29T03:10:41.503Z,24.33
2023-04-29T03:13:27.857Z,25.48
2023-04-29T03:16:16.942Z,23.17
2023-04-29T03:19:03.168Z,23.83
2023-04-29T03:21:51.556Z,24.08
2023-04-29T03:24:39.428Z,28.60
2023-04-29T03:27:25.728Z,26.95
2023-04-29T03:30:12.222Z,27.15
2023-04-29T03:33:05.066Z,29.35
2023-04-29T03:35:51.518Z,31.13
2023-04-29T03:38:52.792Z,26.77
2023-04-29T03:41:38.968Z,27.65
2023-04-29T03:44:25.705Z,28.73
2023-04-29T03:47:11.605Z,26.52
2023-04-29T03:49:57.873Z,24.98
2023-04-29T03:52:43.890Z,27.45
2023-04-29T03:55:34.247Z,26.83
2023-04-29T03:58:20.412Z,26.50
2023-04-29T04:01:06.213Z,28.27
2023-04-29T04:03:59.963Z,24.75
2023-04-29T04:06:51.992Z,28.45
2023-04-29T04:09:41.179Z,22.60
2023-04-29T04:12:27.974Z,28.58
2023-04-29T04:15:14.258Z,29.50
2023-04-29T04:18:00.916Z,25.20
2023-04-29T04:20:47.483Z,26.83
2023-04-29T04:23:33.941Z,25.40
2023-04-29T04:26:23.163Z,26.38
2023-04-29T04:32:14.603Z,29.60
2023-04-29T04:35:00.376Z,28.40
2023-04-29T04:37:46.620Z,26.67
2023-04-29T04:40:32.851Z,23.27
2023-04-29T04:43:39.907Z,28.17
2023-04-29T04:46:32.367Z,26.42
2023-04-29T04:49:25.518Z,26.17
2023-04-29T04:52:12.049Z,25.80
2023-04-29T04:54:58.021Z,30.85
2023-04-29T04:57:46.430Z,24.63
2023-04-29T05:00:32.445Z,30.52
2023-04-29T05:03:18.896Z,25.73
2023-04-29T05:06:04.943Z,29.05
2023-04-29T05:08:51.333Z,27.20
2023-04-29T05:11:37.885Z,24.65
2023-04-29T05:14:42.185Z,26.05
2023-04-29T05:17:28.422Z,25.45
2023-04-29T05:20:15.092Z,26.92
2023-04-29T05:23:01.339Z,25.63
2023-04-29T05:25:49.610Z,27.83
2023-04-29T05:28:36.530Z,26.60
2023-04-29T05:31:23.228Z,25.42
2023-04-29T05:34:09.367Z,25.20
2023-04-29T05:36:55.755Z,28.50
2023-04-29T05:39:41.463Z,28.63
2023-04-29T05:42:33.119Z,25.40
2023-04-29T05:45:20.266Z,29.80
2023-04-29T05:48:08.911Z,30.85
2023-04-29T05:50:55.027Z,24.52
2023-04-29T05:53:41.797Z,25.27
2023-04-29T05:56:27.913Z,29.15
2023-04-29T05:59:15.151Z,29.70
2023-04-29T06:02:06.636Z,27.77
2023-04-29T06:04:54.457Z,27.42
2023-04-29T06:07:59.258Z,28.42
2023-04-29T06:11:03.508Z,27.85
2023-04-29T06:13:49.244Z,25.58
2023-04-29T06:16:35.701Z,27.25
2023-04-29T06:19:21.728Z,27.15
2023-04-29T06:22:08.540Z,29.42
2023-04-29T06:24:55.017Z,26.58
2023-04-29T06:28:04.554Z,27.27
2023-04-29T06:30:50.820Z,25.17
2023-04-29T06:33:38.516Z,29.02
2023-04-29T06:36:25.163Z,24.10
2023-04-29T06:39:34.697Z,27.40
2023-04-29T06:42:34.912Z,26.17
2023-04-29T06:45:47.111Z,23.38
2023-04-29T06:48:41.128Z,23.58
2023-04-29T06:51:28.108Z,29.25
2023-04-29T06:54:14.278Z,26.45
2023-04-29T06:57:00.896Z,24.02
2023-04-29T06:59:46.646Z,26.30
2023-04-29T07:02:32.765Z,22.27
2023-04-29T07:05:19.719Z,29.17
2023-04-29T07:08:06.214Z,22.77
2023-04-29T07:10:56.643Z,24.75
2023-04-29T07:13:43.611Z,29.08
2023-04-29T07:16:29.499Z,25.42
2023-04-29T07:19:16.121Z,23.65
2023-04-29T07:22:02.197Z,26.42
2023-04-29T07:24:48.785Z,52.40
2023-04-29T07:27:35.158Z,23.60
2023-04-29T07:30:21.048Z,30.05
2023-04-29T07:33:06.842Z,27.83
2023-04-29T07:35:53.207Z,23.52
2023-04-29T07:38:40.243Z,23.30
2023-04-29T07:41:26.832Z,26.42
2023-04-29T07:44:13.053Z,26.27
2023-04-29T07:46:59.009Z,24.05
2023-04-29T07:49:45.057Z,29.38
2023-04-29T07:52:31.404Z,59.97
2023-04-29T07:55:17.822Z,43.03
2023-04-29T07:58:04.091Z,84.20
2023-04-29T08:00:50.249Z,65.53
2023-04-29T08:03:39.804Z,144.45
2023-04-29T08:06:27.231Z,112.32
2023-04-29T08:09:13.547Z,82.20
2023-04-29T08:12:02.165Z,77.40
2023-04-29T08:14:48.486Z,27.23
2023-04-29T08:17:34.606Z,43.97
2023-04-29T08:20:21.132Z,31.15
2023-04-29T08:23:07.086Z,82.20
2023-04-29T08:25:55.283Z,42.65
2023-04-29T08:28:41.255Z,48.50
2023-04-29T08:31:27.551Z,37.75
2023-04-29T08:34:13.847Z,48.42
2023-04-29T08:36:59.898Z,52.72
2023-04-29T08:39:47.950Z,58.75
2023-04-29T08:42:37.694Z,35.03
2023-04-29T08:45:25.250Z,37.17
2023-04-29T08:48:11.962Z,28.95
2023-04-29T08:51:02.447Z,45.47
2023-04-29T08:53:48.457Z,26.98
2023-04-29T08:56:34.263Z,30.38
2023-04-29T08:59:21.177Z,25.83
2023-04-29T09:02:09.694Z,39.92
2023-04-29T09:05:03.931Z,29.83
2023-04-29T09:07:51.575Z,27.13
2023-04-29T09:10:38.847Z,25.52
2023-04-29T09:13:31.479Z,24.20
2023-04-29T09:16:17.568Z,27.42
2023-04-29T09:19:03.572Z,18.42
2023-04-29T09:21:55.849Z,23.80
2023-04-29T09:24:43.744Z,30.65
2023-04-29T09:27:29.720Z,23.17
2023-04-29T09:30:16.960Z,21.45
2023-04-29T09:33:08.101Z,21.35
2023-04-29T09:35:54.739Z,20.08
2023-04-29T09:38:54.956Z,20.20
2023-04-29T09:41:57.822Z,22.02
2023-04-29T09:44:45.283Z,18.73
2023-04-29T09:47:32.929Z,17.70
2023-04-29T09:50:19.869Z,16.80
2023-04-29T09:53:11.016Z,18.58
2023-04-29T09:56:03.822Z,18.08
2023-04-29T09:58:49.906Z,18.70
2023-04-29T10:01:36.024Z,16.00
2023-04-29T10:04:23.735Z,16.38
2023-04-29T10:07:15.860Z,17.08
2023-04-29T10:10:03.156Z,19.38
2023-04-29T10:12:49.841Z,20.00
2023-04-29T10:15:43.368Z,20.30
2023-04-29T10:18:41.933Z,19.00
2023-04-29T10:21:31.687Z,21.58
2023-04-29T10:24:19.413Z,21.02
2023-04-29T10:27:14.499Z,16.17
2023-04-29T10:30:01.132Z,15.75
2023-04-29T10:32:51.570Z,18.52
2023-04-29T10:35:38.718Z,16.92
2023-04-29T10:38:36.332Z,15.65
2023-04-29T10:41:25.709Z,15.23
2023-04-29T10:44:11.541Z,46.78
2023-04-29T10:47:20.273Z,23.58
2023-04-29T10:50:06.438Z,18.38
2023-04-29T10:52:52.878Z,19.08
2023-04-29T10:55:39.186Z,18.67
2023-04-29T10:58:41.062Z,19.50
2023-04-29T11:01:44.536Z,20.38
2023-04-29T11:04:31.669Z,16.98
2023-04-29T11:07:31.047Z,18.15
2023-04-29T11:10:16.656Z,20.35
2023-04-29T11:13:26.107Z,24.63
2023-04-29T11:16:12.339Z,18.73
2023-04-29T11:19:06.002Z,19.60
2023-04-29T11:22:04.673Z,24.75
2023-04-29T11:24:50.834Z,20.05
2023-04-29T11:27:39.983Z,19.17
2023-04-29T11:30:26.316Z,20.98
2023-04-29T11:33:11.737Z,18.75
2023-04-29T11:35:58.548Z,30.90
2023-04-29T11:38:44.487Z,21.50
2023-04-29T11:41:31.683Z,19.50
2023-04-29T11:44:22.656Z,15.20
2023-04-29T11:47:08.746Z,18.38
2023-04-29T11:50:11.563Z,20.83
2023-04-29T11:52:58.179Z,18.20
2023-04-29T11:55:44.859Z,17.20
2023-04-29T11:58:31.352Z,16.98
2023-04-29T12:01:17.236Z,15.00
2023-04-29T12:04:04.122Z,17.00
2023-04-29T12:06:53.058Z,12.43
2023-04-29T12:09:44.856Z,13.60
2023-04-29T12:12:35.004Z,17.15
2023-04-29T12:15:21.055Z,15.25
2023-04-29T12:18:06.987Z,13.90
2023-04-29T12:20:53.009Z,13.77
2023-04-29T12:23:39.363Z,13.82
2023-04-29T12:26:28.359Z,14.57
2023-04-29T12:29:14.706Z,14.57
2023-04-29T12:32:00.981Z,16.25
2023-04-29T12:34:47.666Z,11.05
2023-04-29T12:37:35.349Z,14.48
2023-04-29T12:40:21.765Z,14.18
2023-04-29T12:43:11.731Z,13.02
2023-04-29T12:46:04.227Z,18.02
2023-04-29T12:48:50.849Z,20.50
2023-04-29T12:51:37.573Z,17.45
2023-04-29T12:54:23.902Z,15.90
2023-04-29T12:57:11.780Z,13.10
2023-04-29T12:59:58.203Z,19.88
2023-04-29T13:02:44.726Z,14.00
2023-04-29T13:05:31.523Z,15.82
2023-04-29T13:08:18.280Z,22.17
2023-04-29T13:11:04.832Z,14.48
2023-04-29T13:13:50.724Z,14.15
2023-04-29T13:16:37.407Z,15.93
2023-04-29T13:22:13.509Z,17.05
2023-04-29T13:24:59.815Z,15.18
2023-04-29T13:27:45.730Z,15.25
2023-04-29T13:30:32.014Z,13.88
2023-04-29T13:33:19.622Z,13.40
2023-04-29T13:36:05.742Z,14.27
2023-04-29T13:38:55.603Z,13.52
2023-04-29T13:41:45.492Z,14.15
2023-04-29T13:44:44.505Z,13.82
2023-04-29T13:47:55.037Z,15.65
2023-04-29T13:59:36.318Z,14.43
2023-04-29T14:02:24.944Z,20.98
2023-04-29T14:05:11.750Z,43.50
2023-04-29T14:07:58.038Z,23.90
2023-04-29T14:10:44.019Z,25.40
2023-04-29T14:13:30.703Z,20.55
2023-04-29T14:16:17.541Z,19.67
2023-04-29T14:19:04.404Z,20.38
2023-04-29T14:21:50.638Z,18.10
2023-04-29T14:24:39.380Z,17.02
2023-04-29T14:27:25.294Z,16.17
2023-04-29T14:30:11.768Z,16.63
2023-04-29T14:32:57.876Z,14.70
2023-04-29T14:35:43.737Z,16.05
2023-04-29T14:38:29.283Z,12.45
2023-04-29T14:41:16.051Z,14.15
2023-04-29T14:44:02.064Z,15.10
2023-04-29T14:46:49.002Z,21.20
2023-04-29T14:49:35.268Z,12.95
2023-04-29T14:52:21.230Z,13.13
2023-04-29T14:55:07.927Z,14.35
2023-04-29T14:57:54.534Z,32.53
2023-04-29T15:00:40.487Z,22.58
2023-04-29T15:03:26.831Z,13.93
2023-04-29T15:06:13.371Z,15.00
2023-04-29T15:09:00.187Z,16.15
2023-04-29T15:11:46.245Z,11.73
2023-04-29T15:14:33.587Z,10.77
2023-04-29T15:17:19.698Z,12.35
2023-04-29T15:20:07.718Z,7.43
2023-04-29T15:22:53.594Z,14.25
2023-04-29T15:25:40.313Z,9.82
2023-04-29T15:28:26.420Z,12.93
2023-04-29T15:31:13.312Z,7.40
2023-04-29T15:33:59.821Z,13.48
2023-04-29T15:36:46.202Z,8.13
2023-04-29T15:39:31.772Z,7.13
2023-04-29T15:42:17.967Z,8.02
2023-04-29T15:45:04.107Z,10.23
2023-04-29T15:47:50.746Z,6.57
2023-04-29T15:50:36.603Z,7.32
2023-04-29T15:53:23.362Z,8.90
2023-04-29T15:56:08.989Z,5.53
2023-04-29T15:58:54.904Z,15.70
2023-04-29T16:01:40.744Z,9.15
2023-04-29T16:04:26.869Z,8.20
2023-04-29T16:07:12.902Z,6.72
2023-04-29T16:09:58.963Z,10.27
2023-04-29T16:12:45.182Z,12.07
2023-04-29T16:15:31.754Z,9.15
2023-04-29T16:18:18.403Z,9.80
2023-04-29T16:21:05.632Z,7.65
2023-04-29T16:23:51.686Z,12.88
2023-04-29T16:26:40.336Z,13.88
2023-04-29T16:29:26.520Z,9.88
2023-04-29T16:32:12.869Z,10.65
2023-04-29T16:35:00.149Z,11.55
2023-04-29T16:37:47.865Z,11.82
2023-04-29T16:40:33.587Z,12.52
2023-04-29T16:43:19.877Z,12.93
2023-04-29T16:46:06.418Z,11.40
2023-04-29T16:48:56.801Z,14.00
2023-04-29T16:51:43.017Z,12.32
2023-04-29T16:54:28.803Z,14.63
2023-04-29T16:57:14.451Z,14.88
2023-04-29T17:00:00.339Z,19.33
2023-04-29T17:02:48.480Z,24.50
2023-04-29T17:05:36.018Z,28.55
2023-04-29T17:08:21.926Z,19.30
2023-04-29T17:11:08.246Z,14.90
2023-04-29T17:13:54.561Z,15.02
2023-04-29T17:16:40.848Z,14.95
2023-04-29T17:19:27.011Z,16.63
2023-04-29T17:22:13.348Z,12.63
2023-04-29T17:24:58.852Z,10.52
2023-04-29T17:27:46.141Z,11.80
2023-04-29T17:30:33.357Z,12.27
2023-04-29T17:33:19.205Z,17.42
2023-04-29T17:36:06.337Z,14.32
2023-04-29T17:38:52.279Z,13.10
2023-04-29T17:41:38.281Z,12.77
2023-04-29T17:44:24.460Z,13.52
2023-04-29T17:47:11.202Z,21.63
2023-04-29T17:50:00.229Z,19.55
2023-04-29T17:52:48.176Z,17.52
2023-04-29T17:55:34.572Z,17.60
2023-04-29T17:58:21.599Z,20.75
2023-04-29T18:01:08.329Z,20.63
2023-04-29T18:03:54.528Z,27.30
2023-04-29T18:06:41.112Z,23.88
2023-04-29T18:09:27.112Z,26.25
2023-04-29T18:12:14.470Z,29.70
2023-04-29T18:15:01.963Z,27.52
2023-04-29T18:17:48.116Z,27.90
2023-04-29T18:20:34.481Z,31.65
2023-04-29T18:23:20.711Z,33.13
2023-04-29T18:26:06.536Z,36.92
2023-04-29T18:28:53.078Z,38.22
2023-04-29T18:31:39.243Z,38.85
2023-04-29T18:34:25.924Z,34.53
2023-04-29T18:37:12.416Z,33.50
2023-04-29T18:39:58.607Z,35.22
2023-04-29T18:42:44.767Z,35.28
2023-04-29T18:45:31.259Z,33.67
2023-04-29T18:48:17.468Z,32.17
2023-04-29T18:51:06.025Z,33.35
2023-04-29T18:53:52.481Z,34.83
2023-04-29T18:56:40.172Z,36.83
2023-04-29T18:59:26.960Z,36.65
2023-04-29T19:02:15.099Z,35.00
2023-04-29T19:05:06.265Z,30.85
2023-04-29T19:07:52.544Z,30.58
2023-04-29T19:10:38.853Z,31.10
2023-04-29T19:13:26.745Z,30.38
2023-04-29T19:16:12.842Z,31.00
2023-04-29T19:18:59.268Z,33.65
2023-04-29T19:21:45.560Z,31.63
2023-04-29T19:24:32.838Z,31.00
2023-04-29T19:27:18.687Z,35.72
2023-04-29T19:30:05.639Z,33.38
2023-04-29T19:32:51.827Z,30.63
2023-04-29T19:35:38.593Z,32.13
2023-04-29T19:38:25.794Z,39.55
2023-04-29T19:41:12.375Z,32.97
2023-04-29T19:43:58.715Z,32.65
2023-04-29T19:46:45.491Z,34.22
2023-04-29T19:49:31.770Z,34.33
2023-04-29T19:52:17.988Z,34.22
2023-04-29T19:55:05.037Z,33.38
2023-04-29T19:57:52.686Z,32.22
2023-04-29T20:00:38.523Z,33.75
2023-04-29T20:03:25.530Z,33.65
2023-04-29T20:06:12.465Z,32.72
2023-04-29T20:08:59.347Z,27.92
2023-04-29T20:11:45.650Z,30.15
2023-04-29T20:14:33.116Z,27.17
2023-04-29T20:17:19.500Z,27.23
2023-04-29T20:20:09.180Z,28.00
2023-04-29T20:22:58.177Z,26.08
2023-04-29T20:25:44.363Z,23.95
2023-04-29T20:28:30.560Z,23.10
2023-04-29T20:31:17.080Z,22.75
2023-04-29T20:34:02.780Z,25.45
2023-04-29T20:36:49.226Z,21.92
2023-04-29T20:39:35.301Z,24.67
2023-04-29T20:42:22.302Z,23.45
2023-04-29T20:45:08.941Z,20.98
2023-04-29T20:47:55.301Z,21.48
2023-04-29T20:50:41.129Z,23.77
2023-04-29T20:53:27.019Z,24.13
2023-04-29T20:56:13.795Z,22.65
2023-04-29T20:58:59.807Z,22.95
2023-04-29T21:01:46.454Z,21.08
2023-04-29T21:04:33.189Z,26.77
2023-04-29T21:07:19.221Z,23.17
2023-04-29T21:10:05.917Z,24.45
2023-04-29T21:12:52.385Z,23.00
2023-04-29T21:15:39.496Z,22.30
2023-04-29T21:18:26.091Z,25.35
2023-04-29T21:21:13.208Z,23.08
2023-04-29T21:23:59.284Z,22.08
2023-04-29T21:26:46.042Z,19.85
2023-04-29T21:29:31.900Z,24.80
2023-04-29T21:32:21.695Z,22.38
2023-04-29T21:35:08.625Z,21.58
2023-04-29T21:37:54.872Z,20.33
2023-04-29T21:40:41.634Z,21.40
2023-04-29T21:43:28.591Z,22.67
2023-04-29T21:46:15.589Z,19.90
2023-04-29T21:49:02.869Z,23.25
2023-04-29T21:51:48.627Z,22.52
2023-04-29T21:54:34.790Z,19.48
2023-04-29T21:57:28.949Z,20.63
2023-04-29T22:00:33.669Z,26.85
2023-04-29T22:03:19.371Z,28.70
2023-04-29T22:06:05.782Z,19.00
2023-04-29T22:08:51.898Z,22.05
2023-04-29T22:11:38.716Z,19.23
2023-04-29T22:14:24.369Z,22.27
2023-04-29T22:17:10.905Z,20.00
2023-04-29T22:19:56.895Z,19.48
2023-04-29T22:22:43.001Z,19.20
2023-04-29T22:25:29.017Z,19.75
2023-04-29T22:28:15.360Z,20.90
2023-04-29T22:31:01.305Z,22.35
2023-04-29T22:33:47.934Z,19.73
2023-04-29T22:36:34.089Z,17.52
2023-04-29T22:39:20.509Z,17.85
2023-04-29T22:42:07.129Z,21.88
2023-04-29T22:44:53.623Z,20.05
2023-04-29T22:47:39.859Z,22.25
2023-04-29T22:50:26.150Z,17.60
2023-04-29T22:53:11.878Z,20.02
2023-04-29T22:55:59.503Z,17.70
2023-04-29T22:58:45.318Z,18.30
2023-04-29T23:01:31.609Z,18.02
2023-04-29T23:04:18.133Z,18.17
2023-04-29T23:07:04.312Z,19.67
2023-04-29T23:09:51.127Z,21.42
2023-04-29T23:12:37.106Z,20.17
2023-04-29T23:15:23.434Z,19.40
2023-04-29T23:18:09.989Z,20.30
2023-04-29T23:20:56.832Z,19.00
2023-04-29T23:23:43.473Z,20.67
2023-04-29T23:26:29.546Z,20.85
2023-04-29T23:29:16.150Z,20.77
2023-04-29T23:32:02.227Z,21.00
2023-04-29T23:34:48.335Z,20.77
2023-04-29T23:37:34.664Z,21.50
2023-04-29T23:40:21.356Z,22.23
2023-04-29T23:43:07.200Z,19.73
2023-04-29T23:45:53.475Z,20.50
2023-04-29T23:48:39.665Z,21.08
2023-04-29T23:51:26.555Z,21.80
2023-04-29T23:54:12.216Z,22.00
2023-04-29T23:56:58.366Z,23.27
2023-04-29T23:59:45.640Z,20.60
